createdAt,value
2022-09-14T00:03:42.243Z,64.53
2022-09-14T00:07:53.805Z,64.23
2022-09-14T00:12:05.487Z,64.37
2022-09-14T00:16:25.981Z,64.43
2022-09-14T00:20:39.078Z,64.56
2022-09-14T00:24:50.795Z,64.59
2022-09-14T00:29:04.859Z,64.56
2022-09-14T00:33:16.581Z,64.61
2022-09-14T00:37:28.142Z,64.68
2022-09-14T00:41:42.284Z,64.74
2022-09-14T00:45:54.125Z,64.57
2022-09-14T00:50:07.027Z,64.41
2022-09-14T00:54:19.722Z,64.61
2022-09-14T00:58:31.333Z,64.78
2022-09-14T01:02:42.945Z,64.55
2022-09-14T01:07:06.590Z,64.85
2022-09-14T01:11:33.921Z,64.68
2022-09-14T01:16:00.103Z,64.80
2022-09-14T01:20:11.675Z,64.64
2022-09-14T01:24:28.488Z,64.66
2022-09-14T01:29:01.312Z,64.62
2022-09-14T01:33:19.428Z,64.75
2022-09-14T01:37:41.349Z,64.46
2022-09-14T01:41:54.357Z,64.59
2022-09-14T01:46:26.493Z,64.51
2022-09-14T01:50:46.250Z,64.42
2022-09-14T01:55:04.358Z,64.32
2022-09-14T01:59:33.854Z,64.24
2022-09-14T02:03:53.938Z,64.39
2022-09-14T02:08:05.691Z,64.42
2022-09-14T02:12:17.773Z,64.22
2022-09-14T02:16:29.907Z,64.12
2022-09-14T02:20:53.682Z,64.21
2022-09-14T02:25:05.589Z,64.28
2022-09-14T02:29:17.310Z,64.03
2022-09-14T02:33:51.084Z,63.99
2022-09-14T02:38:15.669Z,63.65
2022-09-14T02:42:37.225Z,63.89
2022-09-14T02:47:04.363Z,63.82
2022-09-14T02:51:28.476Z,63.88
2022-09-14T02:55:46.595Z,63.93
2022-09-14T02:59:58.115Z,64.09
2022-09-14T03:04:09.673Z,64.42
2022-09-14T03:08:21.250Z,64.53
2022-09-14T03:12:32.814Z,64.79
2022-09-14T03:16:44.510Z,65.60
2022-09-14T03:21:02.662Z,66.58
2022-09-14T03:25:14.812Z,67.03
2022-09-14T03:29:26.379Z,66.79
2022-09-14T03:33:38.116Z,67.40
2022-09-14T03:37:49.710Z,67.56
2022-09-14T03:42:01.243Z,67.62
2022-09-14T03:46:18.401Z,68.03
2022-09-14T03:50:30.018Z,68.38
2022-09-14T03:54:41.606Z,68.35
2022-09-14T03:58:53.152Z,68.62
2022-09-14T04:03:04.779Z,68.64
2022-09-14T04:07:16.765Z,68.77
2022-09-14T04:11:30.723Z,69.27
2022-09-14T04:15:42.322Z,69.26
2022-09-14T04:19:53.870Z,69.38
2022-09-14T04:24:21.402Z,69.65
2022-09-14T04:28:33.584Z,69.80
2022-09-14T04:32:45.128Z,69.82
2022-09-14T04:36:56.641Z,69.69
2022-09-14T04:41:13.995Z,69.74
2022-09-14T04:45:26.913Z,70.20
2022-09-14T04:49:38.542Z,70.21
2022-09-14T04:53:52.558Z,70.06
2022-09-14T04:58:04.801Z,70.13
2022-09-14T05:02:16.463Z,70.46
2022-09-14T05:06:31.412Z,70.67
2022-09-14T05:10:43.088Z,70.60
2022-09-14T05:14:54.675Z,70.65
2022-09-14T05:19:09.395Z,70.63
2022-09-14T05:23:21.022Z,70.55
2022-09-14T05:27:32.589Z,70.82
2022-09-14T05:31:44.408Z,70.92
2022-09-14T05:36:02.041Z,71.11
2022-09-14T05:40:13.744Z,71.40
2022-09-14T05:44:25.322Z,71.61
2022-09-14T05:48:38.629Z,71.72
2022-09-14T05:52:51.510Z,71.84
2022-09-14T05:57:03.117Z,71.75
2022-09-14T06:01:23.770Z,71.67
2022-09-14T06:05:35.773Z,71.90
2022-09-14T06:09:47.807Z,72.25
2022-09-14T06:14:00.489Z,72.75
2022-09-14T06:18:12.200Z,72.71
2022-09-14T06:22:23.926Z,72.99
2022-09-14T06:26:35.537Z,72.96
2022-09-14T06:30:47.096Z,73.23
2022-09-14T06:34:58.754Z,73.21
2022-09-14T06:39:10.941Z,73.42
2022-09-14T06:43:31.215Z,73.69
2022-09-14T06:47:42.709Z,73.50
2022-09-14T06:51:56.505Z,73.49
2022-09-14T06:56:07.974Z,73.12
2022-09-14T07:00:19.466Z,73.37
2022-09-14T07:04:30.941Z,73.44
2022-09-14T07:08:43.580Z,73.21
2022-09-14T07:12:55.333Z,73.30
2022-09-14T07:17:06.817Z,73.16
2022-09-14T07:21:20.521Z,73.14
2022-09-14T07:25:31.987Z,73.03
2022-09-14T07:29:43.461Z,73.10
2022-09-14T07:33:57.159Z,73.07
2022-09-14T07:38:08.666Z,72.89
2022-09-14T07:42:20.218Z,72.83
2022-09-14T07:46:38.164Z,72.98
2022-09-14T07:51:00.582Z,72.75
2022-09-14T07:55:12.497Z,73.04
2022-09-14T07:59:35.565Z,73.03
2022-09-14T08:03:48.954Z,72.57
2022-09-14T08:08:00.535Z,72.45
2022-09-14T08:12:12.163Z,72.19
2022-09-14T08:16:24.992Z,72.08
2022-09-14T08:20:36.540Z,71.89
2022-09-14T08:24:48.030Z,71.41
2022-09-14T08:29:00.541Z,71.59
2022-09-14T08:33:12.422Z,71.45
2022-09-14T08:37:23.859Z,71.45
2022-09-14T08:41:38.200Z,71.24
2022-09-14T08:45:53.201Z,71.55
2022-09-14T08:50:10.756Z,71.53
2022-09-14T08:54:22.522Z,71.55
2022-09-14T08:58:52.741Z,71.59
2022-09-14T09:03:15.064Z,71.66
2022-09-14T09:07:53.797Z,71.45
2022-09-14T09:12:06.268Z,71.10
2022-09-14T09:16:22.114Z,70.86
2022-09-14T09:20:39.968Z,70.47
2022-09-14T09:24:54.820Z,70.31
2022-09-14T09:29:09.724Z,70.22
2022-09-14T09:33:39.744Z,70.02
2022-09-14T09:38:13.153Z,69.66
2022-09-14T09:42:27.980Z,69.62
2022-09-14T09:46:46.620Z,69.44
2022-09-14T09:51:03.437Z,69.20
2022-09-14T09:55:20.247Z,69.18
2022-09-14T09:59:36.341Z,69.09
2022-09-14T10:04:19.329Z,68.92
2022-09-14T10:08:35.087Z,69.01
2022-09-14T10:12:49.361Z,69.15
2022-09-14T10:17:22.153Z,68.78
2022-09-14T10:21:56.619Z,69.10
2022-09-14T10:26:14.094Z,69.26
2022-09-14T10:30:29.755Z,68.98
2022-09-14T10:34:41.232Z,68.96
2022-09-14T10:38:58.348Z,68.94
2022-09-14T10:43:36.000Z,68.52
2022-09-14T10:48:15.112Z,68.28
2022-09-14T10:53:01.453Z,68.10
2022-09-14T10:57:31.580Z,68.14
2022-09-14T11:02:17.644Z,68.01
2022-09-14T11:06:37.960Z,67.89
2022-09-14T11:11:27.270Z,67.81
2022-09-14T11:15:48.521Z,68.05
2022-09-14T11:20:26.354Z,67.78
2022-09-14T11:24:53.524Z,67.72
2022-09-14T11:29:21.041Z,67.87
2022-09-14T11:33:51.017Z,67.89
2022-09-14T11:38:11.200Z,68.00
2022-09-14T11:42:28.597Z,67.46
2022-09-14T11:46:45.434Z,67.58
2022-09-14T11:51:11.048Z,67.21
2022-09-14T11:55:23.185Z,67.39
2022-09-14T11:59:34.644Z,67.29
2022-09-14T12:04:01.202Z,67.42
2022-09-14T12:08:31.151Z,67.48
2022-09-14T12:12:58.146Z,67.36
2022-09-14T12:17:38.356Z,67.08
2022-09-14T12:21:49.203Z,66.36
2022-09-14T12:26:02.658Z,65.94
2022-09-14T12:30:38.284Z,65.38
2022-09-14T12:35:29.720Z,65.56
2022-09-14T12:40:19.411Z,65.26
2022-09-14T12:44:42.872Z,65.26
2022-09-14T12:48:58.459Z,65.15
2022-09-14T12:53:19.282Z,64.93
2022-09-14T12:57:46.661Z,64.65
2022-09-14T13:02:35.668Z,64.29
2022-09-14T13:06:48.430Z,63.92
2022-09-14T13:10:59.972Z,63.57
2022-09-14T13:15:25.501Z,62.92
2022-09-14T13:19:37.020Z,62.67
2022-09-14T13:23:48.679Z,62.51
2022-09-14T13:28:02.667Z,62.29
2022-09-14T13:32:20.735Z,62.45
2022-09-14T13:36:36.575Z,62.32
2022-09-14T13:40:50.458Z,62.24
2022-09-14T13:45:02.186Z,61.75
2022-09-14T13:49:13.844Z,61.61
2022-09-14T13:53:50.176Z,61.29
2022-09-14T13:58:21.078Z,61.01
2022-09-14T14:02:35.181Z,60.36
2022-09-14T14:07:01.458Z,59.07
2022-09-14T14:11:12.984Z,58.20
2022-09-14T14:15:24.486Z,58.15
2022-09-14T14:19:36.344Z,58.04
2022-09-14T14:24:09.543Z,56.95
2022-09-14T14:28:27.133Z,56.65
2022-09-14T14:32:38.699Z,56.61
2022-09-14T14:36:50.390Z,56.46
2022-09-14T14:41:02.387Z,56.29
2022-09-14T14:45:36.195Z,55.98
2022-09-14T14:49:48.166Z,55.82
2022-09-14T14:54:01.230Z,55.97
2022-09-14T14:58:16.524Z,55.79
2022-09-14T15:02:28.182Z,55.67
2022-09-14T15:06:40.415Z,55.85
2022-09-14T15:10:56.907Z,55.25
2022-09-14T15:15:18.088Z,54.89
2022-09-14T15:19:29.703Z,54.77
2022-09-14T15:23:41.575Z,54.65
2022-09-14T15:27:53.332Z,54.56
2022-09-14T15:32:05.179Z,54.55
2022-09-14T15:36:36.544Z,54.52
2022-09-14T15:40:48.073Z,54.77
2022-09-14T15:44:59.639Z,54.66
2022-09-14T15:49:20.534Z,54.54
2022-09-14T15:53:32.241Z,55.02
2022-09-14T15:57:43.950Z,55.16
2022-09-14T16:01:55.935Z,55.26
2022-09-14T16:06:07.729Z,55.35
2022-09-14T16:10:19.418Z,56.20
2022-09-14T16:14:31.365Z,56.33
2022-09-14T16:18:43.216Z,56.79
2022-09-14T16:22:54.832Z,56.80
2022-09-14T16:27:06.549Z,57.03
2022-09-14T16:31:24.168Z,57.29
2022-09-14T16:35:35.761Z,57.80
2022-09-14T16:39:49.044Z,58.11
2022-09-14T16:44:02.361Z,58.61
2022-09-14T16:48:13.970Z,59.96
2022-09-14T16:52:25.565Z,60.34
2022-09-14T16:56:38.693Z,61.38
2022-09-14T17:00:50.693Z,62.13
2022-09-14T17:05:02.584Z,62.72
2022-09-14T17:09:18.297Z,63.40
2022-09-14T17:13:30.876Z,63.71
2022-09-14T17:17:42.442Z,64.88
2022-09-14T17:21:54.049Z,64.76
2022-09-14T17:26:08.845Z,64.79
2022-09-14T17:30:20.423Z,65.44
2022-09-14T17:34:31.943Z,65.78
2022-09-14T17:38:44.565Z,65.94
2022-09-14T17:42:56.417Z,66.15
2022-09-14T17:47:07.996Z,66.39
2022-09-14T17:51:22.735Z,66.92
2022-09-14T17:55:34.371Z,67.56
2022-09-14T17:59:46.278Z,67.63
2022-09-14T18:04:01.702Z,67.69
2022-09-14T18:08:13.472Z,68.07
2022-09-14T18:12:25.048Z,68.36
2022-09-14T18:16:36.592Z,68.52
2022-09-14T18:20:49.068Z,68.51
2022-09-14T18:25:00.629Z,68.69
2022-09-14T18:29:18.397Z,68.85
2022-09-14T18:33:30.207Z,69.25
2022-09-14T18:38:07.671Z,69.50
2022-09-14T18:42:19.184Z,69.90
2022-09-14T18:46:31.140Z,70.49
2022-09-14T18:50:43.321Z,70.78
2022-09-14T18:54:54.850Z,70.86
2022-09-14T18:59:10.068Z,71.28
2022-09-14T19:03:21.605Z,71.34
2022-09-14T19:07:35.851Z,71.64
2022-09-14T19:11:47.382Z,71.97
2022-09-14T19:15:59.029Z,71.92
2022-09-14T19:20:11.390Z,72.39
2022-09-14T19:24:22.965Z,74.63
2022-09-14T19:28:35.564Z,75.19
2022-09-14T19:32:47.302Z,75.31
2022-09-14T19:36:58.898Z,75.05
2022-09-14T19:41:10.697Z,75.22
2022-09-14T19:45:22.293Z,75.35
2022-09-14T19:49:33.923Z,75.18
2022-09-14T19:53:48.797Z,75.32
2022-09-14T19:58:00.396Z,75.18
2022-09-14T20:02:12.024Z,75.01
2022-09-14T20:06:29.592Z,75.28
2022-09-14T20:10:41.195Z,75.35
2022-09-14T20:14:52.818Z,75.53
2022-09-14T20:19:15.869Z,76.07
2022-09-14T20:23:27.474Z,76.15
2022-09-14T20:27:39.080Z,75.98
2022-09-14T20:31:51.470Z,76.42
2022-09-14T20:36:10.244Z,76.45
2022-09-14T20:40:21.776Z,76.98
2022-09-14T20:44:33.748Z,77.09
2022-09-14T20:48:46.657Z,77.02
2022-09-14T20:52:58.294Z,76.86
2022-09-14T20:57:09.935Z,76.80
2022-09-14T21:01:23.529Z,76.68
2022-09-14T21:05:35.051Z,76.67
2022-09-14T21:09:46.528Z,76.63
2022-09-14T21:13:58.488Z,77.05
2022-09-14T21:18:09.985Z,76.92
2022-09-14T21:22:21.508Z,77.13
2022-09-14T21:26:33.980Z,77.22
2022-09-14T21:30:45.565Z,77.41
2022-09-14T21:34:57.050Z,77.60
2022-09-14T21:39:17.188Z,77.81
2022-09-14T21:43:28.950Z,77.95
2022-09-14T21:47:40.423Z,78.21
2022-09-14T21:51:52.102Z,78.24
2022-09-14T21:56:05.524Z,77.93
2022-09-14T22:00:20.765Z,77.75
2022-09-14T22:04:32.263Z,77.75
2022-09-14T22:08:44.285Z,78.01
2022-09-14T22:12:55.783Z,77.96
2022-09-14T22:17:07.265Z,78.33
2022-09-14T22:21:19.743Z,78.35
2022-09-14T22:25:33.652Z,78.18
2022-09-14T22:29:45.357Z,78.09
2022-09-14T22:33:57.915Z,78.27
2022-09-14T22:38:09.401Z,78.25
2022-09-14T22:42:21.334Z,78.34
2022-09-14T22:46:33.544Z,78.55
2022-09-14T22:50:48.878Z,78.70
2022-09-14T22:55:00.336Z,78.76
2022-09-14T22:59:11.868Z,78.96
2022-09-14T23:03:23.391Z,78.96
2022-09-14T23:07:35.122Z,78.96
2022-09-14T23:11:47.318Z,79.25
2022-09-14T23:16:00.961Z,79.30
2022-09-14T23:20:12.489Z,79.11
2022-09-14T23:24:24.065Z,79.45
2022-09-14T23:28:36.782Z,79.61
2022-09-14T23:32:48.263Z,79.55
2022-09-14T23:37:01.515Z,79.51
2022-09-14T23:41:12.976Z,79.72
2022-09-14T23:45:24.535Z,79.71
2022-09-14T23:49:36.171Z,79.83
2022-09-14T23:53:47.902Z,80.38
2022-09-14T23:57:59.473Z,80.48
